sensor_id;sensor_type;location;lat;lon;timestamp;P1;durP1;ratioP1;P2;durP2;ratioP2
23304;SDS011;11821;51.456;8.844;2023-02-23T06:25:04;25.25;;;16.30;;
23304;SDS011;11821;51.456;8.844;2023-02-23T06:27:40;21.25;;;16.55;;
23304;SDS011;11821;51.456;8.844;2023-02-23T06:30:06;26.30;;;17.77;;
23304;SDS011;11821;51.456;8.844;2023-02-23T06:32:35;25.42;;;18.85;;
23304;SDS011;11821;51.456;8.844;2023-02-23T06:35:04;24.83;;;16.42;;
23304;SDS011;11821;51.456;8.844;2023-02-23T06:37:35;21.60;;;16.58;;
23304;SDS011;11821;51.456;8.844;2023-02-23T06:40:02;30.33;;;19.58;;
23304;SDS011;11821;51.456;8.844;2023-02-23T06:42:29;23.45;;;17.20;;
23304;SDS011;11821;51.456;8.844;2023-02-23T06:44:55;32.33;;;18.90;;
23304;SDS011;11821;51.456;8.844;2023-02-23T06:47:22;32.67;;;20.20;;
23304;SDS011;11821;51.456;8.844;2023-02-23T06:49:52;28.17;;;19.38;;
23304;SDS011;11821;51.456;8.844;2023-02-23T06:52:19;32.10;;;19.08;;
23304;SDS011;11821;51.456;8.844;2023-02-23T06:54:46;32.75;;;19.25;;
23304;SDS011;11821;51.456;8.844;2023-02-23T06:57:14;33.08;;;20.83;;
23304;SDS011;11821;51.456;8.844;2023-02-23T06:59:41;24.10;;;17.83;;
23304;SDS011;11821;51.456;8.844;2023-02-23T07:02:12;33.42;;;18.80;;
23304;SDS011;11821;51.456;8.844;2023-02-23T07:04:38;37.65;;;21.13;;
23304;SDS011;11821;51.456;8.844;2023-02-23T07:15:23;33.27;;;20.13;;
23304;SDS011;11821;51.456;8.844;2023-02-23T07:17:50;38.28;;;22.65;;
23304;SDS011;11821;51.456;8.844;2023-02-23T07:20:17;36.97;;;22.98;;
23304;SDS011;11821;51.456;8.844;2023-02-23T07:22:44;46.78;;;24.25;;
23304;SDS011;11821;51.456;8.844;2023-02-23T07:25:11;36.25;;;21.75;;
23304;SDS011;11821;51.456;8.844;2023-02-23T07:27:38;45.53;;;25.02;;
23304;SDS011;11821;51.456;8.844;2023-02-23T07:30:08;32.10;;;20.13;;
23304;SDS011;11821;51.456;8.844;2023-02-23T07:32:35;44.00;;;23.75;;
23304;SDS011;11821;51.456;8.844;2023-02-23T07:35:02;45.83;;;24.80;;
23304;SDS011;11821;51.456;8.844;2023-02-23T07:37:29;34.88;;;22.98;;
23304;SDS011;11821;51.456;8.844;2023-02-23T07:39:56;39.47;;;24.20;;
23304;SDS011;11821;51.456;8.844;2023-02-23T07:42:22;44.63;;;26.02;;
23304;SDS011;11821;51.456;8.844;2023-02-23T07:44:52;35.83;;;22.27;;
23304;SDS011;11821;51.456;8.844;2023-02-23T07:47:19;36.30;;;22.73;;
23304;SDS011;11821;51.456;8.844;2023-02-23T07:49:47;36.78;;;23.90;;
23304;SDS011;11821;51.456;8.844;2023-02-23T07:52:16;39.95;;;23.25;;
23304;SDS011;11821;51.456;8.844;2023-02-23T07:54:43;46.70;;;26.27;;
23304;SDS011;11821;51.456;8.844;2023-02-23T07:57:10;45.83;;;27.25;;
23304;SDS011;11821;51.456;8.844;2023-02-23T07:59:36;45.00;;;25.85;;
23304;SDS011;11821;51.456;8.844;2023-02-23T08:02:03;31.42;;;20.08;;
23304;SDS011;11821;51.456;8.844;2023-02-23T08:04:30;43.78;;;24.55;;
23304;SDS011;11821;51.456;8.844;2023-02-23T08:06:56;40.20;;;24.52;;
23304;SDS011;11821;51.456;8.844;2023-02-23T08:09:23;97.93;;;46.58;;
23304;SDS011;11821;51.456;8.844;2023-02-23T08:11:49;37.60;;;23.25;;
23304;SDS011;11821;51.456;8.844;2023-02-23T08:14:16;51.67;;;30.10;;
23304;SDS011;11821;51.456;8.844;2023-02-23T08:16:46;44.08;;;27.00;;
23304;SDS011;11821;51.456;8.844;2023-02-23T08:19:13;43.92;;;26.55;;
23304;SDS011;11821;51.456;8.844;2023-02-23T08:21:39;44.53;;;24.70;;
23304;SDS011;11821;51.456;8.844;2023-02-23T08:24:08;38.42;;;23.13;;
23304;SDS011;11821;51.456;8.844;2023-02-23T08:26:35;45.25;;;24.05;;
23304;SDS011;11821;51.456;8.844;2023-02-23T08:29:03;35.42;;;21.85;;
23304;SDS011;11821;51.456;8.844;2023-02-23T08:31:29;36.50;;;21.92;;
23304;SDS011;11821;51.456;8.844;2023-02-23T08:33:56;38.60;;;24.85;;
23304;SDS011;11821;51.456;8.844;2023-02-23T08:36:23;24.27;;;17.13;;
23304;SDS011;11821;51.456;8.844;2023-02-23T08:38:50;36.03;;;22.40;;
23304;SDS011;11821;51.456;8.844;2023-02-23T08:41:18;34.22;;;22.58;;
23304;SDS011;11821;51.456;8.844;2023-02-23T08:43:45;16.92;;;13.07;;
23304;SDS011;11821;51.456;8.844;2023-02-23T08:46:13;35.55;;;23.25;;
23304;SDS011;11821;51.456;8.844;2023-02-23T08:48:41;38.30;;;25.70;;
23304;SDS011;11821;51.456;8.844;2023-02-23T08:51:07;52.90;;;33.72;;
23304;SDS011;11821;51.456;8.844;2023-02-23T08:53:34;49.25;;;32.92;;
23304;SDS011;11821;51.456;8.844;2023-02-23T08:56:02;42.05;;;28.88;;
23304;SDS011;11821;51.456;8.844;2023-02-23T08:58:29;46.15;;;28.98;;
23304;SDS011;11821;51.456;8.844;2023-02-23T09:00:56;41.92;;;27.40;;
23304;SDS011;11821;51.456;8.844;2023-02-23T09:03:23;42.05;;;28.27;;
23304;SDS011;11821;51.456;8.844;2023-02-23T09:05:51;14.73;;;13.20;;
23304;SDS011;11821;51.456;8.844;2023-02-23T09:08:17;42.10;;;26.67;;
23304;SDS011;11821;51.456;8.844;2023-02-23T09:10:44;44.47;;;28.75;;
23304;SDS011;11821;51.456;8.844;2023-02-23T09:13:10;38.28;;;24.73;;
23304;SDS011;11821;51.456;8.844;2023-02-23T09:15:40;31.60;;;22.65;;
23304;SDS011;11821;51.456;8.844;2023-02-23T09:18:07;39.13;;;25.63;;
23304;SDS011;11821;51.456;8.844;2023-02-23T09:20:35;37.58;;;25.35;;
23304;SDS011;11821;51.456;8.844;2023-02-23T09:23:03;38.00;;;25.08;;
23304;SDS011;11821;51.456;8.844;2023-02-23T09:25:29;37.95;;;26.45;;
23304;SDS011;11821;51.456;8.844;2023-02-23T09:27:56;38.17;;;25.30;;
23304;SDS011;11821;51.456;8.844;2023-02-23T09:30:25;35.88;;;24.75;;
23304;SDS011;11821;51.456;8.844;2023-02-23T09:32:52;42.50;;;26.30;;
23304;SDS011;11821;51.456;8.844;2023-02-23T09:35:20;38.80;;;25.67;;
23304;SDS011;11821;51.456;8.844;2023-02-23T09:37:48;37.65;;;26.52;;
23304;SDS011;11821;51.456;8.844;2023-02-23T09:40:16;43.30;;;28.63;;
23304;SDS011;11821;51.456;8.844;2023-02-23T09:45:28;46.08;;;30.95;;
23304;SDS011;11821;51.456;8.844;2023-02-23T09:48:04;40.60;;;26.65;;
23304;SDS011;11821;51.456;8.844;2023-02-23T09:50:32;44.05;;;28.08;;
23304;SDS011;11821;51.456;8.844;2023-02-23T09:53:00;43.03;;;27.83;;
23304;SDS011;11821;51.456;8.844;2023-02-23T09:55:27;42.25;;;27.23;;
23304;SDS011;11821;51.456;8.844;2023-02-23T09:57:56;44.47;;;27.52;;
23304;SDS011;11821;51.456;8.844;2023-02-23T10:00:24;42.35;;;27.88;;
23304;SDS011;11821;51.456;8.844;2023-02-23T10:05:39;55.05;;;31.95;;
23304;SDS011;11821;51.456;8.844;2023-02-23T10:08:18;63.75;;;36.35;;
23304;SDS011;11821;51.456;8.844;2023-02-23T10:10:55;49.25;;;30.27;;
23304;SDS011;11821;51.456;8.844;2023-02-23T10:13:31;46.55;;;30.08;;
23304;SDS011;11821;51.456;8.844;2023-02-23T10:16:06;43.28;;;29.95;;
23304;SDS011;11821;51.456;8.844;2023-02-23T10:18:44;52.63;;;31.58;;
23304;SDS011;11821;51.456;8.844;2023-02-23T10:21:14;53.10;;;30.42;;
23304;SDS011;11821;51.456;8.844;2023-02-23T10:23:44;49.10;;;31.42;;
23304;SDS011;11821;51.456;8.844;2023-02-23T10:26:15;57.88;;;32.92;;
23304;SDS011;11821;51.456;8.844;2023-02-23T10:28:42;56.08;;;30.92;;
23304;SDS011;11821;51.456;8.844;2023-02-23T10:31:43;53.67;;;31.73;;
23304;SDS011;11821;51.456;8.844;2023-02-23T10:34:03;39.08;;;27.20;;
23304;SDS011;11821;51.456;8.844;2023-02-23T10:36:35;26.25;;;19.75;;
23304;SDS011;11821;51.456;8.844;2023-02-23T10:39:06;20.35;;;18.25;;
23304;SDS011;11821;51.456;8.844;2023-02-23T10:41:33;18.67;;;16.88;;
23304;SDS011;11821;51.456;8.844;2023-02-23T10:43:59;14.23;;;12.80;;
23304;SDS011;11821;51.456;8.844;2023-02-23T10:46:29;16.73;;;15.25;;
23304;SDS011;11821;51.456;8.844;2023-02-23T10:48:59;14.20;;;13.00;;
23304;SDS011;11821;51.456;8.844;2023-02-23T10:51:31;13.68;;;12.32;;
23304;SDS011;11821;51.456;8.844;2023-02-23T10:56:24;16.25;;;14.93;;
23304;SDS011;11821;51.456;8.844;2023-02-23T10:58:52;16.52;;;15.10;;
23304;SDS011;11821;51.456;8.844;2023-02-23T11:06:40;15.45;;;14.05;;
23304;SDS011;11821;51.456;8.844;2023-02-23T11:09:26;16.40;;;14.98;;
23304;SDS011;11821;51.456;8.844;2023-02-23T11:12:01;14.18;;;12.90;;
23304;SDS011;11821;51.456;8.844;2023-02-23T11:14:29;13.63;;;12.48;;
23304;SDS011;11821;51.456;8.844;2023-02-23T11:16:56;12.10;;;11.10;;
23304;SDS011;11821;51.456;8.844;2023-02-23T11:19:27;11.50;;;10.52;;
23304;SDS011;11821;51.456;8.844;2023-02-23T11:21:55;12.68;;;11.57;;
23304;SDS011;11821;51.456;8.844;2023-02-23T11:24:26;11.00;;;10.00;;
23304;SDS011;11821;51.456;8.844;2023-02-23T11:26:57;10.77;;;9.88;;
23304;SDS011;11821;51.456;8.844;2023-02-23T11:31:57;12.13;;;11.10;;
23304;SDS011;11821;51.456;8.844;2023-02-23T11:34:30;14.00;;;12.60;;
23304;SDS011;11821;51.456;8.844;2023-02-23T11:36:58;11.52;;;10.63;;
23304;SDS011;11821;51.456;8.844;2023-02-23T11:39:25;11.55;;;10.50;;
23304;SDS011;11821;51.456;8.844;2023-02-23T11:44:37;11.65;;;10.65;;
23304;SDS011;11821;51.456;8.844;2023-02-23T11:47:04;9.82;;;8.93;;
23304;SDS011;11821;51.456;8.844;2023-02-23T11:49:31;9.63;;;8.90;;
23304;SDS011;11821;51.456;8.844;2023-02-23T11:52:01;10.18;;;9.38;;
23304;SDS011;11821;51.456;8.844;2023-02-23T11:54:29;9.65;;;8.85;;
23304;SDS011;11821;51.456;8.844;2023-02-23T11:56:57;10.80;;;9.80;;
23304;SDS011;11821;51.456;8.844;2023-02-23T11:59:27;10.23;;;9.43;;
23304;SDS011;11821;51.456;8.844;2023-02-23T12:01:58;9.88;;;9.07;;
23304;SDS011;11821;51.456;8.844;2023-02-23T12:04:35;10.38;;;9.48;;
23304;SDS011;11821;51.456;8.844;2023-02-23T12:09:44;9.05;;;8.25;;
23304;SDS011;11821;51.456;8.844;2023-02-23T12:12:13;12.38;;;11.27;;
23304;SDS011;11821;51.456;8.844;2023-02-23T12:17:17;12.20;;;11.00;;
23304;SDS011;11821;51.456;8.844;2023-02-23T12:19:50;13.32;;;12.07;;
23304;SDS011;11821;51.456;8.844;2023-02-23T12:22:21;12.70;;;11.60;;
23304;SDS011;11821;51.456;8.844;2023-02-23T12:27:32;13.18;;;11.98;;
23304;SDS011;11821;51.456;8.844;2023-02-23T12:32:38;14.95;;;13.45;;
23304;SDS011;11821;51.456;8.844;2023-02-23T12:37:45;18.23;;;16.23;;
23304;SDS011;11821;51.456;8.844;2023-02-23T12:45:12;17.33;;;15.48;;
23304;SDS011;11821;51.456;8.844;2023-02-23T12:48:02;20.83;;;18.35;;
23304;SDS011;11821;51.456;8.844;2023-02-23T12:50:38;27.23;;;21.42;;
23304;SDS011;11821;51.456;8.844;2023-02-23T12:55:43;23.88;;;19.85;;
23304;SDS011;11821;51.456;8.844;2023-02-23T13:00:50;26.00;;;20.60;;
23304;SDS011;11821;51.456;8.844;2023-02-23T13:14:03;31.02;;;23.20;;
23304;SDS011;11821;51.456;8.844;2023-02-23T13:16:36;31.55;;;23.85;;
23304;SDS011;11821;51.456;8.844;2023-02-23T13:24:06;33.85;;;25.27;;
23304;SDS011;11821;51.456;8.844;2023-02-23T13:29:35;38.95;;;25.27;;
23304;SDS011;11821;51.456;8.844;2023-02-23T13:34:32;36.20;;;25.95;;
23304;SDS011;11821;51.456;8.844;2023-02-23T13:36:59;36.63;;;26.05;;
23304;SDS011;11821;51.456;8.844;2023-02-23T13:47:52;39.70;;;26.77;;
23304;SDS011;11821;51.456;8.844;2023-02-23T13:52:42;30.90;;;22.85;;
23304;SDS011;11821;51.456;8.844;2023-02-23T13:57:51;36.85;;;24.88;;
23304;SDS011;11821;51.456;8.844;2023-02-23T14:00:19;43.95;;;25.33;;
23304;SDS011;11821;51.456;8.844;2023-02-23T14:02:46;38.38;;;26.10;;
23304;SDS011;11821;51.456;8.844;2023-02-23T14:07:48;33.03;;;21.27;;
23304;SDS011;11821;51.456;8.844;2023-02-23T14:10:26;28.50;;;20.40;;
23304;SDS011;11821;51.456;8.844;2023-02-23T14:15:46;26.70;;;19.25;;
23304;SDS011;11821;51.456;8.844;2023-02-23T14:23:37;32.30;;;20.90;;
23304;SDS011;11821;51.456;8.844;2023-02-23T14:26:14;34.50;;;24.00;;
23304;SDS011;11821;51.456;8.844;2023-02-23T14:28:42;39.78;;;25.85;;
23304;SDS011;11821;51.456;8.844;2023-02-23T14:41:21;25.75;;;19.77;;
23304;SDS011;11821;51.456;8.844;2023-02-23T14:43:51;31.52;;;21.60;;
23304;SDS011;11821;51.456;8.844;2023-02-23T14:46:19;31.15;;;22.48;;
23304;SDS011;11821;51.456;8.844;2023-02-23T14:51:33;29.90;;;20.48;;
23304;SDS011;11821;51.456;8.844;2023-02-23T14:54:08;28.27;;;19.77;;
23304;SDS011;11821;51.456;8.844;2023-02-23T14:56:43;25.60;;;18.65;;
23304;SDS011;11821;51.456;8.844;2023-02-23T14:59:16;62.92;;;32.35;;
23304;SDS011;11821;51.456;8.844;2023-02-23T15:01:45;31.60;;;21.60;;
23304;SDS011;11821;51.456;8.844;2023-02-23T15:04:13;30.75;;;20.60;;
23304;SDS011;11821;51.456;8.844;2023-02-23T15:06:41;33.67;;;22.55;;
23304;SDS011;11821;51.456;8.844;2023-02-23T15:09:19;35.65;;;22.67;;
23304;SDS011;11821;51.456;8.844;2023-02-23T15:11:48;33.47;;;22.25;;
23304;SDS011;11821;51.456;8.844;2023-02-23T15:14:18;37.67;;;23.63;;
23304;SDS011;11821;51.456;8.844;2023-02-23T15:16:45;33.78;;;22.45;;
23304;SDS011;11821;51.456;8.844;2023-02-23T15:19:30;19.58;;;15.18;;
23304;SDS011;11821;51.456;8.844;2023-02-23T15:21:59;12.73;;;10.93;;
23304;SDS011;11821;51.456;8.844;2023-02-23T15:24:29;11.50;;;9.70;;
23304;SDS011;11821;51.456;8.844;2023-02-23T15:26:56;10.10;;;8.20;;
23304;SDS011;11821;51.456;8.844;2023-02-23T15:29:24;10.27;;;8.50;;
23304;SDS011;11821;51.456;8.844;2023-02-23T15:31:52;8.73;;;7.82;;
23304;SDS011;11821;51.456;8.844;2023-02-23T15:34:23;8.15;;;7.35;;
23304;SDS011;11821;51.456;8.844;2023-02-23T15:40:06;6.38;;;5.72;;
23304;SDS011;11821;51.456;8.844;2023-02-23T15:42:14;6.03;;;5.38;;
23304;SDS011;11821;51.456;8.844;2023-02-23T15:44:42;6.55;;;5.80;;
23304;SDS011;11821;51.456;8.844;2023-02-23T15:47:16;4.90;;;4.45;;
23304;SDS011;11821;51.456;8.844;2023-02-23T15:49:44;5.57;;;4.95;;
23304;SDS011;11821;51.456;8.844;2023-02-23T15:52:15;5.20;;;4.70;;
23304;SDS011;11821;51.456;8.844;2023-02-23T15:54:45;6.28;;;5.43;;
23304;SDS011;11821;51.456;8.844;2023-02-23T15:57:20;4.90;;;4.22;;
23304;SDS011;11821;51.456;8.844;2023-02-23T15:59:47;5.78;;;5.18;;
23304;SDS011;11821;51.456;8.844;2023-02-23T16:02:17;13.68;;;12.27;;
23304;SDS011;11821;51.456;8.844;2023-02-23T16:04:45;6.50;;;5.90;;
23304;SDS011;11821;51.456;8.844;2023-02-23T16:07:19;7.10;;;6.40;;
23304;SDS011;11821;51.456;8.844;2023-02-23T16:09:50;7.97;;;7.18;;
23304;SDS011;11821;51.456;8.844;2023-02-23T16:12:18;8.68;;;6.20;;
23304;SDS011;11821;51.456;8.844;2023-02-23T16:14:50;7.25;;;6.47;;
23304;SDS011;11821;51.456;8.844;2023-02-23T16:17:28;4.95;;;4.47;;
23304;SDS011;11821;51.456;8.844;2023-02-23T16:20:02;4.63;;;4.10;;
23304;SDS011;11821;51.456;8.844;2023-02-23T16:22:32;7.95;;;4.50;;
23304;SDS011;11821;51.456;8.844;2023-02-23T16:25:03;5.78;;;4.65;;
23304;SDS011;11821;51.456;8.844;2023-02-23T16:27:32;6.32;;;5.45;;
23304;SDS011;11821;51.456;8.844;2023-02-23T16:30:03;6.72;;;5.40;;
23304;SDS011;11821;51.456;8.844;2023-02-23T16:32:32;8.02;;;6.03;;
23304;SDS011;11821;51.456;8.844;2023-02-23T16:35:00;10.73;;;6.18;;
23304;SDS011;11821;51.456;8.844;2023-02-23T16:37:28;12.35;;;7.10;;
23304;SDS011;11821;51.456;8.844;2023-02-23T16:39:55;8.73;;;6.57;;
23304;SDS011;11821;51.456;8.844;2023-02-23T16:44:51;10.35;;;8.32;;
23304;SDS011;11821;51.456;8.844;2023-02-23T16:49:47;10.13;;;7.85;;
23304;SDS011;11821;51.456;8.844;2023-02-23T16:52:18;15.43;;;10.02;;
23304;SDS011;11821;51.456;8.844;2023-02-23T16:54:47;12.45;;;8.73;;
23304;SDS011;11821;51.456;8.844;2023-02-23T16:57:20;13.48;;;7.88;;
23304;SDS011;11821;51.456;8.844;2023-02-23T16:59:47;12.73;;;8.18;;
23304;SDS011;11821;51.456;8.844;2023-02-23T17:02:17;9.45;;;7.45;;
23304;SDS011;11821;51.456;8.844;2023-02-23T17:04:47;13.68;;;9.50;;
23304;SDS011;11821;51.456;8.844;2023-02-23T17:07:15;15.68;;;9.27;;
23304;SDS011;11821;51.456;8.844;2023-02-23T17:09:41;14.80;;;9.20;;
23304;SDS011;11821;51.456;8.844;2023-02-23T17:12:09;13.13;;;9.25;;
23304;SDS011;11821;51.456;8.844;2023-02-23T17:14:36;13.63;;;8.63;;
23304;SDS011;11821;51.456;8.844;2023-02-23T17:17:02;13.10;;;9.23;;
23304;SDS011;11821;51.456;8.844;2023-02-23T17:19:29;41.85;;;27.05;;
23304;SDS011;11821;51.456;8.844;2023-02-23T17:21:56;21.45;;;12.65;;
23304;SDS011;11821;51.456;8.844;2023-02-23T17:24:22;19.35;;;12.80;;
23304;SDS011;11821;51.456;8.844;2023-02-23T17:26:51;19.27;;;11.80;;
23304;SDS011;11821;51.456;8.844;2023-02-23T17:29:17;14.35;;;9.40;;
23304;SDS011;11821;51.456;8.844;2023-02-23T17:31:44;15.82;;;9.98;;
23304;SDS011;11821;51.456;8.844;2023-02-23T17:34:11;9.43;;;8.23;;
23304;SDS011;11821;51.456;8.844;2023-02-23T17:36:37;10.80;;;8.10;;
23304;SDS011;11821;51.456;8.844;2023-02-23T17:39:04;9.88;;;8.00;;
23304;SDS011;11821;51.456;8.844;2023-02-23T17:41:34;10.52;;;8.95;;
23304;SDS011;11821;51.456;8.844;2023-02-23T17:44:00;11.65;;;7.75;;
23304;SDS011;11821;51.456;8.844;2023-02-23T17:46:30;14.75;;;9.32;;
23304;SDS011;11821;51.456;8.844;2023-02-23T17:48:56;12.98;;;8.52;;
23304;SDS011;11821;51.456;8.844;2023-02-23T17:51:23;8.30;;;7.03;;
23304;SDS011;11821;51.456;8.844;2023-02-23T17:53:50;12.00;;;8.20;;
23304;SDS011;11821;51.456;8.844;2023-02-23T17:56:17;9.25;;;7.55;;
23304;SDS011;11821;51.456;8.844;2023-02-23T17:58:45;12.32;;;8.85;;
23304;SDS011;11821;51.456;8.844;2023-02-23T18:01:12;11.90;;;8.15;;
23304;SDS011;11821;51.456;8.844;2023-02-23T18:03:39;11.07;;;8.07;;
23304;SDS011;11821;51.456;8.844;2023-02-23T18:06:06;12.32;;;8.50;;
23304;SDS011;11821;51.456;8.844;2023-02-23T18:08:33;11.23;;;8.13;;
23304;SDS011;11821;51.456;8.844;2023-02-23T18:11:00;12.57;;;8.55;;
23304;SDS011;11821;51.456;8.844;2023-02-23T18:13:27;12.77;;;8.57;;
23304;SDS011;11821;51.456;8.844;2023-02-23T18:15:57;12.35;;;9.07;;
23304;SDS011;11821;51.456;8.844;2023-02-23T18:18:25;12.73;;;8.15;;
23304;SDS011;11821;51.456;8.844;2023-02-23T18:20:56;11.57;;;8.73;;
23304;SDS011;11821;51.456;8.844;2023-02-23T18:23:24;11.23;;;7.90;;
23304;SDS011;11821;51.456;8.844;2023-02-23T18:25:53;10.32;;;8.13;;
23304;SDS011;11821;51.456;8.844;2023-02-23T18:28:20;37.50;;;25.23;;
23304;SDS011;11821;51.456;8.844;2023-02-23T18:30:46;14.00;;;9.98;;
23304;SDS011;11821;51.456;8.844;2023-02-23T18:33:13;12.02;;;8.88;;
23304;SDS011;11821;51.456;8.844;2023-02-23T18:35:41;10.77;;;7.90;;
23304;SDS011;11821;51.456;8.844;2023-02-23T18:38:09;16.33;;;10.68;;
23304;SDS011;11821;51.456;8.844;2023-02-23T18:40:36;18.33;;;12.98;;
23304;SDS011;11821;51.456;8.844;2023-02-23T18:43:03;16.42;;;9.55;;
23304;SDS011;11821;51.456;8.844;2023-02-23T18:45:30;18.98;;;9.75;;
23304;SDS011;11821;51.456;8.844;2023-02-23T18:47:57;19.25;;;14.13;;
23304;SDS011;11821;51.456;8.844;2023-02-23T18:50:23;19.95;;;12.80;;
23304;SDS011;11821;51.456;8.844;2023-02-23T18:52:51;19.95;;;12.27;;
23304;SDS011;11821;51.456;8.844;2023-02-23T18:55:18;17.20;;;11.07;;
23304;SDS011;11821;51.456;8.844;2023-02-23T18:57:47;20.50;;;14.10;;
23304;SDS011;11821;51.456;8.844;2023-02-23T19:00:14;19.83;;;12.65;;
23304;SDS011;11821;51.456;8.844;2023-02-23T19:02:41;11.82;;;7.78;;
23304;SDS011;11821;51.456;8.844;2023-02-23T19:05:09;12.73;;;9.80;;
23304;SDS011;11821;51.456;8.844;2023-02-23T19:07:37;14.07;;;9.05;;
23304;SDS011;11821;51.456;8.844;2023-02-23T19:10:05;20.13;;;12.55;;
23304;SDS011;11821;51.456;8.844;2023-02-23T19:12:34;18.45;;;11.43;;
23304;SDS011;11821;51.456;8.844;2023-02-23T19:15:00;21.00;;;12.52;;
23304;SDS011;11821;51.456;8.844;2023-02-23T19:17:28;22.38;;;12.40;;
23304;SDS011;11821;51.456;8.844;2023-02-23T19:19:55;19.00;;;12.18;;
23304;SDS011;11821;51.456;8.844;2023-02-23T19:22:22;13.80;;;9.60;;
23304;SDS011;11821;51.456;8.844;2023-02-23T19:24:48;20.13;;;12.25;;
23304;SDS011;11821;51.456;8.844;2023-02-23T19:27:15;17.75;;;11.45;;
23304;SDS011;11821;51.456;8.844;2023-02-23T19:29:42;20.90;;;11.50;;
23304;SDS011;11821;51.456;8.844;2023-02-23T19:32:10;17.10;;;11.13;;
23304;SDS011;11821;51.456;8.844;2023-02-23T19:34:37;12.80;;;9.20;;
23304;SDS011;11821;51.456;8.844;2023-02-23T19:37:04;17.25;;;11.77;;
23304;SDS011;11821;51.456;8.844;2023-02-23T19:39:31;22.17;;;14.82;;
23304;SDS011;11821;51.456;8.844;2023-02-23T19:41:58;22.88;;;11.30;;
23304;SDS011;11821;51.456;8.844;2023-02-23T19:44:24;22.98;;;12.55;;
23304;SDS011;11821;51.456;8.844;2023-02-23T19:46:51;23.77;;;12.95;;
23304;SDS011;11821;51.456;8.844;2023-02-23T19:49:17;19.52;;;12.20;;
23304;SDS011;11821;51.456;8.844;2023-02-23T19:51:44;27.55;;;13.43;;
23304;SDS011;11821;51.456;8.844;2023-02-23T19:54:12;24.90;;;13.00;;
23304;SDS011;11821;51.456;8.844;2023-02-23T19:56:38;21.70;;;12.65;;
23304;SDS011;11821;51.456;8.844;2023-02-23T19:59:05;24.15;;;13.95;;
23304;SDS011;11821;51.456;8.844;2023-02-23T20:01:31;20.58;;;12.15;;
23304;SDS011;11821;51.456;8.844;2023-02-23T20:03:59;20.27;;;12.45;;
23304;SDS011;11821;51.456;8.844;2023-02-23T20:06:31;20.00;;;11.73;;
23304;SDS011;11821;51.456;8.844;2023-02-23T20:08:59;20.77;;;11.82;;
23304;SDS011;11821;51.456;8.844;2023-02-23T20:11:26;25.30;;;13.57;;
23304;SDS011;11821;51.456;8.844;2023-02-23T20:13:54;28.40;;;13.52;;
23304;SDS011;11821;51.456;8.844;2023-02-23T20:16:22;26.48;;;13.50;;
23304;SDS011;11821;51.456;8.844;2023-02-23T20:18:54;29.67;;;15.05;;
23304;SDS011;11821;51.456;8.844;2023-02-23T20:21:21;27.90;;;14.52;;
23304;SDS011;11821;51.456;8.844;2023-02-23T20:23:48;27.02;;;13.90;;
23304;SDS011;11821;51.456;8.844;2023-02-23T20:26:16;37.00;;;16.10;;
23304;SDS011;11821;51.456;8.844;2023-02-23T20:28:43;42.60;;;17.80;;
23304;SDS011;11821;51.456;8.844;2023-02-23T20:31:10;44.58;;;18.67;;
23304;SDS011;11821;51.456;8.844;2023-02-23T20:33:37;42.05;;;17.25;;
23304;SDS011;11821;51.456;8.844;2023-02-23T20:36:03;47.05;;;21.42;;
23304;SDS011;11821;51.456;8.844;2023-02-23T20:38:30;51.78;;;19.92;;
23304;SDS011;11821;51.456;8.844;2023-02-23T20:40:57;48.78;;;21.17;;
23304;SDS011;11821;51.456;8.844;2023-02-23T20:43:27;46.72;;;18.80;;
23304;SDS011;11821;51.456;8.844;2023-02-23T20:45:55;53.78;;;21.27;;
23304;SDS011;11821;51.456;8.844;2023-02-23T20:48:29;56.10;;;23.35;;
23304;SDS011;11821;51.456;8.844;2023-02-23T20:50:55;60.28;;;22.20;;
23304;SDS011;11821;51.456;8.844;2023-02-23T20:53:22;56.53;;;21.52;;
23304;SDS011;11821;51.456;8.844;2023-02-23T20:55:49;66.70;;;24.48;;
23304;SDS011;11821;51.456;8.844;2023-02-23T20:58:16;55.55;;;21.95;;
23304;SDS011;11821;51.456;8.844;2023-02-23T21:00:50;55.53;;;21.73;;
23304;SDS011;11821;51.456;8.844;2023-02-23T21:03:19;60.42;;;21.92;;
23304;SDS011;11821;51.456;8.844;2023-02-23T21:05:46;55.15;;;21.77;;
23304;SDS011;11821;51.456;8.844;2023-02-23T21:08:13;57.53;;;21.20;;
23304;SDS011;11821;51.456;8.844;2023-02-23T21:10:40;46.53;;;19.30;;
23304;SDS011;11821;51.456;8.844;2023-02-23T21:13:07;59.38;;;22.02;;
23304;SDS011;11821;51.456;8.844;2023-02-23T21:15:37;48.08;;;20.10;;
23304;SDS011;11821;51.456;8.844;2023-02-23T21:18:04;45.85;;;18.20;;
23304;SDS011;11821;51.456;8.844;2023-02-23T21:20:31;40.97;;;18.27;;
23304;SDS011;11821;51.456;8.844;2023-02-23T21:22:58;43.63;;;16.85;;
23304;SDS011;11821;51.456;8.844;2023-02-23T21:25:25;46.42;;;18.13;;
23304;SDS011;11821;51.456;8.844;2023-02-23T21:27:52;57.20;;;20.83;;
23304;SDS011;11821;51.456;8.844;2023-02-23T21:30:20;44.33;;;18.08;;
23304;SDS011;11821;51.456;8.844;2023-02-23T21:32:47;46.10;;;18.88;;
23304;SDS011;11821;51.456;8.844;2023-02-23T21:35:14;46.75;;;17.92;;
23304;SDS011;11821;51.456;8.844;2023-02-23T21:37:41;43.85;;;17.17;;
23304;SDS011;11821;51.456;8.844;2023-02-23T21:40:09;47.90;;;16.98;;
23304;SDS011;11821;51.456;8.844;2023-02-23T21:42:37;43.05;;;16.92;;
23304;SDS011;11821;51.456;8.844;2023-02-23T21:45:04;38.38;;;16.45;;
23304;SDS011;11821;51.456;8.844;2023-02-23T21:47:33;44.45;;;16.63;;
23304;SDS011;11821;51.456;8.844;2023-02-23T21:50:00;45.70;;;17.50;;
23304;SDS011;11821;51.456;8.844;2023-02-23T21:52:27;48.97;;;22.45;;
23304;SDS011;11821;51.456;8.844;2023-02-23T21:54:55;30.67;;;15.02;;
23304;SDS011;11821;51.456;8.844;2023-02-23T21:57:23;30.38;;;14.30;;
23304;SDS011;11821;51.456;8.844;2023-02-23T21:59:52;22.92;;;11.05;;
23304;SDS011;11821;51.456;8.844;2023-02-23T22:02:19;33.30;;;14.45;;
23304;SDS011;11821;51.456;8.844;2023-02-23T22:04:46;37.47;;;16.38;;
23304;SDS011;11821;51.456;8.844;2023-02-23T22:07:13;42.78;;;18.27;;
23304;SDS011;11821;51.456;8.844;2023-02-23T22:09:41;44.88;;;18.25;;
23304;SDS011;11821;51.456;8.844;2023-02-23T22:12:08;55.13;;;20.25;;
23304;SDS011;11821;51.456;8.844;2023-02-23T22:14:35;42.95;;;16.48;;
23304;SDS011;11821;51.456;8.844;2023-02-23T22:17:02;48.35;;;18.38;;
23304;SDS011;11821;51.456;8.844;2023-02-23T22:19:31;58.78;;;22.05;;
23304;SDS011;11821;51.456;8.844;2023-02-23T22:21:57;49.22;;;19.10;;
23304;SDS011;11821;51.456;8.844;2023-02-23T22:24:24;45.80;;;19.40;;
23304;SDS011;11821;51.456;8.844;2023-02-23T22:26:50;50.83;;;20.73;;
23304;SDS011;11821;51.456;8.844;2023-02-23T22:29:21;53.50;;;20.40;;
23304;SDS011;11821;51.456;8.844;2023-02-23T22:31:48;56.97;;;20.88;;
23304;SDS011;11821;51.456;8.844;2023-02-23T22:34:14;51.75;;;20.85;;
23304;SDS011;11821;51.456;8.844;2023-02-23T22:36:42;40.88;;;18.42;;
23304;SDS011;11821;51.456;8.844;2023-02-23T22:39:09;45.10;;;18.33;;
23304;SDS011;11821;51.456;8.844;2023-02-23T22:41:37;48.95;;;19.17;;
23304;SDS011;11821;51.456;8.844;2023-02-23T22:44:13;57.65;;;22.50;;
23304;SDS011;11821;51.456;8.844;2023-02-23T22:46:41;51.40;;;20.33;;
23304;SDS011;11821;51.456;8.844;2023-02-23T22:49:09;53.80;;;21.50;;
23304;SDS011;11821;51.456;8.844;2023-02-23T22:51:36;58.03;;;21.85;;
23304;SDS011;11821;51.456;8.844;2023-02-23T22:54:04;53.28;;;22.10;;